sensor_id;sensor_type;location;lat;lon;timestamp;P1;durP1;ratioP1;P2;durP2;ratioP2
22967;SDS011;11650;48.106;-1.696;2022-07-06T00:01:30;11.03;;;3.30;;
22967;SDS011;11650;48.106;-1.696;2022-07-06T00:03:56;10.43;;;2.73;;
22967;SDS011;11650;48.106;-1.696;2022-07-06T00:06:22;15.67;;;3.80;;
22967;SDS011;11650;48.106;-1.696;2022-07-06T00:08:48;12.63;;;3.47;;
22967;SDS011;11650;48.106;-1.696;2022-07-06T00:11:14;15.40;;;3.57;;
22967;SDS011;11650;48.106;-1.696;2022-07-06T00:13:40;9.60;;;3.00;;
22967;SDS011;11650;48.106;-1.696;2022-07-06T00:16:06;11.20;;;3.20;;
22967;SDS011;11650;48.106;-1.696;2022-07-06T00:18:32;11.20;;;3.37;;
22967;SDS011;11650;48.106;-1.696;2022-07-06T00:20:57;16.47;;;3.33;;
22967;SDS011;11650;48.106;-1.696;2022-07-06T00:23:23;12.73;;;3.50;;
22967;SDS011;11650;48.106;-1.696;2022-07-06T00:25:49;18.63;;;3.67;;
22967;SDS011;11650;48.106;-1.696;2022-07-06T00:28:14;15.60;;;3.63;;
22967;SDS011;11650;48.106;-1.696;2022-07-06T00:30:40;11.17;;;3.27;;
22967;SDS011;11650;48.106;-1.696;2022-07-06T00:33:06;12.70;;;3.53;;
22967;SDS011;11650;48.106;-1.696;2022-07-06T00:35:32;10.83;;;3.10;;
22967;SDS011;11650;48.106;-1.696;2022-07-06T00:37:58;13.73;;;3.30;;
22967;SDS011;11650;48.106;-1.696;2022-07-06T00:40:24;14.33;;;3.53;;
22967;SDS011;11650;48.106;-1.696;2022-07-06T00:42:50;13.70;;;3.50;;
22967;SDS011;11650;48.106;-1.696;2022-07-06T00:45:17;18.73;;;3.90;;
22967;SDS011;11650;48.106;-1.696;2022-07-06T00:47:43;11.23;;;3.40;;
22967;SDS011;11650;48.106;-1.696;2022-07-06T00:50:11;11.30;;;3.60;;
22967;SDS011;11650;48.106;-1.696;2022-07-06T00:52:42;11.60;;;3.10;;
22967;SDS011;11650;48.106;-1.696;2022-07-06T00:55:10;13.83;;;3.80;;
22967;SDS011;11650;48.106;-1.696;2022-07-06T00:57:37;14.57;;;3.30;;
22967;SDS011;11650;48.106;-1.696;2022-07-06T01:00:03;13.23;;;3.30;;
22967;SDS011;11650;48.106;-1.696;2022-07-06T01:02:33;13.43;;;3.70;;
22967;SDS011;11650;48.106;-1.696;2022-07-06T01:05:00;12.33;;;3.23;;
22967;SDS011;11650;48.106;-1.696;2022-07-06T01:07:28;10.77;;;3.93;;
22967;SDS011;11650;48.106;-1.696;2022-07-06T01:09:54;16.60;;;4.27;;
22967;SDS011;11650;48.106;-1.696;2022-07-06T01:12:20;10.63;;;3.73;;
22967;SDS011;11650;48.106;-1.696;2022-07-06T01:14:47;12.47;;;3.80;;
22967;SDS011;11650;48.106;-1.696;2022-07-06T01:17:13;11.47;;;3.57;;
22967;SDS011;11650;48.106;-1.696;2022-07-06T01:19:40;12.00;;;4.20;;
22967;SDS011;11650;48.106;-1.696;2022-07-06T01:22:05;13.97;;;4.10;;
22967;SDS011;11650;48.106;-1.696;2022-07-06T01:24:31;11.67;;;3.87;;
22967;SDS011;11650;48.106;-1.696;2022-07-06T01:27:00;13.83;;;4.10;;
22967;SDS011;11650;48.106;-1.696;2022-07-06T01:29:26;17.27;;;3.63;;
22967;SDS011;11650;48.106;-1.696;2022-07-06T01:31:52;13.33;;;4.30;;
22967;SDS011;11650;48.106;-1.696;2022-07-06T01:34:18;14.03;;;4.13;;
22967;SDS011;11650;48.106;-1.696;2022-07-06T01:36:44;14.53;;;4.70;;
22967;SDS011;11650;48.106;-1.696;2022-07-06T01:39:11;20.90;;;4.80;;
22967;SDS011;11650;48.106;-1.696;2022-07-06T01:41:36;15.20;;;4.53;;
22967;SDS011;11650;48.106;-1.696;2022-07-06T01:44:02;16.00;;;4.30;;
22967;SDS011;11650;48.106;-1.696;2022-07-06T01:46:28;14.97;;;3.80;;
22967;SDS011;11650;48.106;-1.696;2022-07-06T01:48:55;12.97;;;4.27;;
22967;SDS011;11650;48.106;-1.696;2022-07-06T01:51:20;18.63;;;4.70;;
22967;SDS011;11650;48.106;-1.696;2022-07-06T01:53:46;12.13;;;4.77;;
22967;SDS011;11650;48.106;-1.696;2022-07-06T01:56:13;12.87;;;4.83;;
22967;SDS011;11650;48.106;-1.696;2022-07-06T01:58:38;18.53;;;4.50;;
22967;SDS011;11650;48.106;-1.696;2022-07-06T02:01:08;16.97;;;4.03;;
22967;SDS011;11650;48.106;-1.696;2022-07-06T02:03:35;16.70;;;4.93;;
22967;SDS011;11650;48.106;-1.696;2022-07-06T02:06:01;12.70;;;4.07;;
22967;SDS011;11650;48.106;-1.696;2022-07-06T02:08:27;13.63;;;4.30;;
22967;SDS011;11650;48.106;-1.696;2022-07-06T02:10:53;13.50;;;4.50;;
22967;SDS011;11650;48.106;-1.696;2022-07-06T02:13:19;12.57;;;4.60;;
22967;SDS011;11650;48.106;-1.696;2022-07-06T02:15:45;16.87;;;5.23;;
22967;SDS011;11650;48.106;-1.696;2022-07-06T02:18:10;13.37;;;4.67;;
22967;SDS011;11650;48.106;-1.696;2022-07-06T02:20:36;14.13;;;4.93;;
22967;SDS011;11650;48.106;-1.696;2022-07-06T02:23:02;13.30;;;5.13;;
22967;SDS011;11650;48.106;-1.696;2022-07-06T02:25:27;14.60;;;4.73;;
22967;SDS011;11650;48.106;-1.696;2022-07-06T02:27:53;16.00;;;5.00;;
22967;SDS011;11650;48.106;-1.696;2022-07-06T02:30:19;17.37;;;5.00;;
22967;SDS011;11650;48.106;-1.696;2022-07-06T02:32:44;14.07;;;4.57;;
22967;SDS011;11650;48.106;-1.696;2022-07-06T02:35:10;14.27;;;5.57;;
22967;SDS011;11650;48.106;-1.696;2022-07-06T02:37:36;14.33;;;4.57;;
22967;SDS011;11650;48.106;-1.696;2022-07-06T02:40:03;15.70;;;4.97;;
22967;SDS011;11650;48.106;-1.696;2022-07-06T02:42:29;19.03;;;5.33;;
22967;SDS011;11650;48.106;-1.696;2022-07-06T02:44:55;17.63;;;5.20;;
22967;SDS011;11650;48.106;-1.696;2022-07-06T02:47:20;16.60;;;5.63;;
22967;SDS011;11650;48.106;-1.696;2022-07-06T02:49:46;17.73;;;6.00;;
22967;SDS011;11650;48.106;-1.696;2022-07-06T02:52:12;14.33;;;5.50;;
22967;SDS011;11650;48.106;-1.696;2022-07-06T02:54:38;16.73;;;5.60;;
22967;SDS011;11650;48.106;-1.696;2022-07-06T02:57:03;13.33;;;5.57;;
22967;SDS011;11650;48.106;-1.696;2022-07-06T02:59:29;17.60;;;5.87;;
22967;SDS011;11650;48.106;-1.696;2022-07-06T03:01:55;15.97;;;7.03;;
22967;SDS011;11650;48.106;-1.696;2022-07-06T03:04:20;18.40;;;6.73;;
22967;SDS011;11650;48.106;-1.696;2022-07-06T03:06:46;17.60;;;7.13;;
22967;SDS011;11650;48.106;-1.696;2022-07-06T03:09:12;17.77;;;6.50;;
22967;SDS011;11650;48.106;-1.696;2022-07-06T03:11:38;16.80;;;7.03;;
22967;SDS011;11650;48.106;-1.696;2022-07-06T03:14:04;17.40;;;7.60;;
22967;SDS011;11650;48.106;-1.696;2022-07-06T03:16:30;18.23;;;7.63;;
22967;SDS011;11650;48.106;-1.696;2022-07-06T03:18:56;20.50;;;7.13;;
22967;SDS011;11650;48.106;-1.696;2022-07-06T03:21:22;17.03;;;8.10;;
22967;SDS011;11650;48.106;-1.696;2022-07-06T03:23:49;16.43;;;7.90;;
22967;SDS011;11650;48.106;-1.696;2022-07-06T03:26:14;16.43;;;7.37;;
22967;SDS011;11650;48.106;-1.696;2022-07-06T03:28:40;18.37;;;8.03;;
22967;SDS011;11650;48.106;-1.696;2022-07-06T03:31:05;18.43;;;8.53;;
22967;SDS011;11650;48.106;-1.696;2022-07-06T03:33:31;19.43;;;8.50;;
22967;SDS011;11650;48.106;-1.696;2022-07-06T03:35:57;20.70;;;8.10;;
22967;SDS011;11650;48.106;-1.696;2022-07-06T03:38:23;17.93;;;8.00;;
22967;SDS011;11650;48.106;-1.696;2022-07-06T03:40:48;18.63;;;8.13;;
22967;SDS011;11650;48.106;-1.696;2022-07-06T03:43:14;20.60;;;7.90;;
22967;SDS011;11650;48.106;-1.696;2022-07-06T03:45:39;13.17;;;7.33;;
22967;SDS011;11650;48.106;-1.696;2022-07-06T03:48:05;17.10;;;8.17;;
22967;SDS011;11650;48.106;-1.696;2022-07-06T03:50:31;15.43;;;8.73;;
22967;SDS011;11650;48.106;-1.696;2022-07-06T03:52:56;13.50;;;7.33;;
22967;SDS011;11650;48.106;-1.696;2022-07-06T03:55:22;12.33;;;7.53;;
22967;SDS011;11650;48.106;-1.696;2022-07-06T03:57:48;14.80;;;8.10;;
22967;SDS011;11650;48.106;-1.696;2022-07-06T04:00:13;16.33;;;8.13;;
22967;SDS011;11650;48.106;-1.696;2022-07-06T04:02:39;12.97;;;7.60;;
22967;SDS011;11650;48.106;-1.696;2022-07-06T04:05:05;15.40;;;7.73;;
22967;SDS011;11650;48.106;-1.696;2022-07-06T04:07:32;16.67;;;8.37;;
22967;SDS011;11650;48.106;-1.696;2022-07-06T04:09:57;10.80;;;7.37;;
22967;SDS011;11650;48.106;-1.696;2022-07-06T04:12:23;15.57;;;8.43;;
22967;SDS011;11650;48.106;-1.696;2022-07-06T04:14:48;14.43;;;7.90;;
22967;SDS011;11650;48.106;-1.696;2022-07-06T04:17:14;13.73;;;7.60;;
22967;SDS011;11650;48.106;-1.696;2022-07-06T04:19:58;10.07;;;7.07;;
22967;SDS011;11650;48.106;-1.696;2022-07-06T04:22:24;11.23;;;7.33;;
22967;SDS011;11650;48.106;-1.696;2022-07-06T04:24:50;11.70;;;7.70;;
22967;SDS011;11650;48.106;-1.696;2022-07-06T04:27:15;14.07;;;7.03;;
22967;SDS011;11650;48.106;-1.696;2022-07-06T04:29:41;14.60;;;7.20;;
22967;SDS011;11650;48.106;-1.696;2022-07-06T04:32:07;13.13;;;7.03;;
22967;SDS011;11650;48.106;-1.696;2022-07-06T04:34:32;13.27;;;7.20;;
22967;SDS011;11650;48.106;-1.696;2022-07-06T04:36:58;14.40;;;6.60;;
22967;SDS011;11650;48.106;-1.696;2022-07-06T04:39:24;17.37;;;7.13;;
22967;SDS011;11650;48.106;-1.696;2022-07-06T04:41:49;15.07;;;7.20;;
22967;SDS011;11650;48.106;-1.696;2022-07-06T04:44:15;14.27;;;6.47;;
22967;SDS011;11650;48.106;-1.696;2022-07-06T04:46:41;10.90;;;6.90;;
22967;SDS011;11650;48.106;-1.696;2022-07-06T04:49:06;14.97;;;6.50;;
22967;SDS011;11650;48.106;-1.696;2022-07-06T04:51:32;13.27;;;6.87;;
22967;SDS011;11650;48.106;-1.696;2022-07-06T04:53:58;11.83;;;6.30;;
22967;SDS011;11650;48.106;-1.696;2022-07-06T04:56:24;11.00;;;7.20;;
22967;SDS011;11650;48.106;-1.696;2022-07-06T04:58:49;12.37;;;6.87;;
22967;SDS011;11650;48.106;-1.696;2022-07-06T05:01:15;11.97;;;6.97;;
22967;SDS011;11650;48.106;-1.696;2022-07-06T05:03:41;9.27;;;6.67;;
22967;SDS011;11650;48.106;-1.696;2022-07-06T05:06:07;9.73;;;6.87;;
22967;SDS011;11650;48.106;-1.696;2022-07-06T05:08:33;10.93;;;7.10;;
22967;SDS011;11650;48.106;-1.696;2022-07-06T05:10:59;12.43;;;8.03;;
22967;SDS011;11650;48.106;-1.696;2022-07-06T05:13:25;11.73;;;7.83;;
22967;SDS011;11650;48.106;-1.696;2022-07-06T05:15:51;13.47;;;7.67;;
22967;SDS011;11650;48.106;-1.696;2022-07-06T05:18:16;13.23;;;7.83;;
22967;SDS011;11650;48.106;-1.696;2022-07-06T05:20:42;13.57;;;7.40;;
22967;SDS011;11650;48.106;-1.696;2022-07-06T05:23:08;9.60;;;7.60;;
22967;SDS011;11650;48.106;-1.696;2022-07-06T05:25:33;11.60;;;7.27;;
22967;SDS011;11650;48.106;-1.696;2022-07-06T05:28:00;12.70;;;8.20;;
22967;SDS011;11650;48.106;-1.696;2022-07-06T05:30:26;9.97;;;6.87;;
22967;SDS011;11650;48.106;-1.696;2022-07-06T05:32:52;12.00;;;7.53;;
22967;SDS011;11650;48.106;-1.696;2022-07-06T05:35:17;12.30;;;7.33;;
22967;SDS011;11650;48.106;-1.696;2022-07-06T05:37:43;12.80;;;7.47;;
22967;SDS011;11650;48.106;-1.696;2022-07-06T05:40:09;11.10;;;7.40;;
22967;SDS011;11650;48.106;-1.696;2022-07-06T05:42:35;13.23;;;7.37;;
22967;SDS011;11650;48.106;-1.696;2022-07-06T05:45:01;12.27;;;8.20;;
22967;SDS011;11650;48.106;-1.696;2022-07-06T05:47:28;10.47;;;7.70;;
22967;SDS011;11650;48.106;-1.696;2022-07-06T05:50:12;10.43;;;7.70;;
22967;SDS011;11650;48.106;-1.696;2022-07-06T05:52:41;11.57;;;7.80;;
22967;SDS011;11650;48.106;-1.696;2022-07-06T05:55:11;10.50;;;7.70;;
22967;SDS011;11650;48.106;-1.696;2022-07-06T05:57:37;14.23;;;7.47;;
22967;SDS011;11650;48.106;-1.696;2022-07-06T06:00:05;11.33;;;7.33;;
22967;SDS011;11650;48.106;-1.696;2022-07-06T06:02:38;10.63;;;7.30;;
22967;SDS011;11650;48.106;-1.696;2022-07-06T06:05:05;12.10;;;6.80;;
22967;SDS011;11650;48.106;-1.696;2022-07-06T06:07:32;13.70;;;7.00;;
22967;SDS011;11650;48.106;-1.696;2022-07-06T06:09:59;10.30;;;6.30;;
22967;SDS011;11650;48.106;-1.696;2022-07-06T06:12:26;11.37;;;6.97;;
22967;SDS011;11650;48.106;-1.696;2022-07-06T06:14:51;10.43;;;6.40;;
22967;SDS011;11650;48.106;-1.696;2022-07-06T06:17:17;11.63;;;6.50;;
22967;SDS011;11650;48.106;-1.696;2022-07-06T06:19:42;11.07;;;6.23;;
22967;SDS011;11650;48.106;-1.696;2022-07-06T06:22:08;10.77;;;6.70;;
22967;SDS011;11650;48.106;-1.696;2022-07-06T06:24:34;10.27;;;6.13;;
22967;SDS011;11650;48.106;-1.696;2022-07-06T06:26:59;11.87;;;6.17;;
22967;SDS011;11650;48.106;-1.696;2022-07-06T06:29:25;9.93;;;5.73;;
22967;SDS011;11650;48.106;-1.696;2022-07-06T06:31:50;9.97;;;5.97;;
22967;SDS011;11650;48.106;-1.696;2022-07-06T06:34:16;8.77;;;5.27;;
22967;SDS011;11650;48.106;-1.696;2022-07-06T06:36:42;13.13;;;5.63;;
22967;SDS011;11650;48.106;-1.696;2022-07-06T06:39:07;10.50;;;5.50;;
22967;SDS011;11650;48.106;-1.696;2022-07-06T06:41:33;13.77;;;5.20;;
22967;SDS011;11650;48.106;-1.696;2022-07-06T06:43:58;9.57;;;4.77;;
22967;SDS011;11650;48.106;-1.696;2022-07-06T06:46:24;7.97;;;5.07;;
22967;SDS011;11650;48.106;-1.696;2022-07-06T06:48:50;13.37;;;6.83;;
22967;SDS011;11650;48.106;-1.696;2022-07-06T06:51:15;12.03;;;4.90;;
22967;SDS011;11650;48.106;-1.696;2022-07-06T06:53:41;10.53;;;4.67;;
22967;SDS011;11650;48.106;-1.696;2022-07-06T06:56:07;10.50;;;4.43;;
22967;SDS011;11650;48.106;-1.696;2022-07-06T06:58:33;8.03;;;4.20;;
22967;SDS011;11650;48.106;-1.696;2022-07-06T07:00:59;12.03;;;4.20;;
22967;SDS011;11650;48.106;-1.696;2022-07-06T07:03:24;8.30;;;3.97;;
22967;SDS011;11650;48.106;-1.696;2022-07-06T07:05:50;5.70;;;3.20;;
22967;SDS011;11650;48.106;-1.696;2022-07-06T07:08:16;10.67;;;3.90;;
22967;SDS011;11650;48.106;-1.696;2022-07-06T07:10:41;12.67;;;3.63;;
22967;SDS011;11650;48.106;-1.696;2022-07-06T07:13:07;6.83;;;3.20;;
22967;SDS011;11650;48.106;-1.696;2022-07-06T07:15:33;4.27;;;3.27;;
22967;SDS011;11650;48.106;-1.696;2022-07-06T07:17:58;9.30;;;3.10;;
22967;SDS011;11650;48.106;-1.696;2022-07-06T07:20:24;7.70;;;3.10;;
22967;SDS011;11650;48.106;-1.696;2022-07-06T07:22:50;10.10;;;3.13;;
22967;SDS011;11650;48.106;-1.696;2022-07-06T07:25:16;8.07;;;2.87;;
22967;SDS011;11650;48.106;-1.696;2022-07-06T07:27:41;10.40;;;2.80;;
22967;SDS011;11650;48.106;-1.696;2022-07-06T07:30:07;7.20;;;2.90;;
22967;SDS011;11650;48.106;-1.696;2022-07-06T07:32:33;5.60;;;2.70;;
22967;SDS011;11650;48.106;-1.696;2022-07-06T07:34:59;8.30;;;2.60;;
22967;SDS011;11650;48.106;-1.696;2022-07-06T07:37:25;6.00;;;2.60;;
22967;SDS011;11650;48.106;-1.696;2022-07-06T07:39:50;8.13;;;2.83;;
22967;SDS011;11650;48.106;-1.696;2022-07-06T07:42:16;8.43;;;2.43;;
22967;SDS011;11650;48.106;-1.696;2022-07-06T07:44:42;7.30;;;2.70;;
22967;SDS011;11650;48.106;-1.696;2022-07-06T07:47:07;6.23;;;2.47;;
22967;SDS011;11650;48.106;-1.696;2022-07-06T07:49:33;6.10;;;2.40;;
22967;SDS011;11650;48.106;-1.696;2022-07-06T07:51:58;8.23;;;2.50;;
22967;SDS011;11650;48.106;-1.696;2022-07-06T07:54:24;7.37;;;2.37;;
22967;SDS011;11650;48.106;-1.696;2022-07-06T07:56:50;8.37;;;2.40;;
22967;SDS011;11650;48.106;-1.696;2022-07-06T07:59:15;7.23;;;2.30;;
22967;SDS011;11650;48.106;-1.696;2022-07-06T08:01:41;12.93;;;2.60;;
22967;SDS011;11650;48.106;-1.696;2022-07-06T08:04:07;7.00;;;2.10;;
22967;SDS011;11650;48.106;-1.696;2022-07-06T08:06:32;6.37;;;2.40;;
22967;SDS011;11650;48.106;-1.696;2022-07-06T08:08:58;4.87;;;1.77;;
22967;SDS011;11650;48.106;-1.696;2022-07-06T08:11:24;8.00;;;2.00;;
22967;SDS011;11650;48.106;-1.696;2022-07-06T08:13:50;7.30;;;2.10;;
22967;SDS011;11650;48.106;-1.696;2022-07-06T08:16:16;7.33;;;2.10;;
22967;SDS011;11650;48.106;-1.696;2022-07-06T08:18:41;8.43;;;1.80;;
22967;SDS011;11650;48.106;-1.696;2022-07-06T08:21:07;9.83;;;2.20;;
22967;SDS011;11650;48.106;-1.696;2022-07-06T08:23:33;6.33;;;2.10;;
22967;SDS011;11650;48.106;-1.696;2022-07-06T08:26:01;4.50;;;1.80;;
22967;SDS011;11650;48.106;-1.696;2022-07-06T08:28:27;8.90;;;2.30;;
22967;SDS011;11650;48.106;-1.696;2022-07-06T08:30:53;4.57;;;2.00;;
22967;SDS011;11650;48.106;-1.696;2022-07-06T08:33:19;9.70;;;2.27;;
22967;SDS011;11650;48.106;-1.696;2022-07-06T08:35:45;4.80;;;1.90;;
22967;SDS011;11650;48.106;-1.696;2022-07-06T08:38:11;3.90;;;2.00;;
22967;SDS011;11650;48.106;-1.696;2022-07-06T08:40:37;6.73;;;2.03;;
22967;SDS011;11650;48.106;-1.696;2022-07-06T08:43:04;5.37;;;2.00;;
22967;SDS011;11650;48.106;-1.696;2022-07-06T08:45:30;6.03;;;2.00;;
22967;SDS011;11650;48.106;-1.696;2022-07-06T08:47:59;7.07;;;2.13;;
22967;SDS011;11650;48.106;-1.696;2022-07-06T08:50:29;5.70;;;2.00;;
22967;SDS011;11650;48.106;-1.696;2022-07-06T08:52:55;4.70;;;1.90;;
22967;SDS011;11650;48.106;-1.696;2022-07-06T08:55:21;6.93;;;2.00;;
22967;SDS011;11650;48.106;-1.696;2022-07-06T08:57:47;5.53;;;1.90;;
22967;SDS011;11650;48.106;-1.696;2022-07-06T09:00:13;5.07;;;1.93;;
22967;SDS011;11650;48.106;-1.696;2022-07-06T09:02:40;7.63;;;2.37;;
22967;SDS011;11650;48.106;-1.696;2022-07-06T09:05:06;7.47;;;1.93;;
22967;SDS011;11650;48.106;-1.696;2022-07-06T09:07:33;5.60;;;1.93;;
22967;SDS011;11650;48.106;-1.696;2022-07-06T09:10:00;7.67;;;2.03;;
22967;SDS011;11650;48.106;-1.696;2022-07-06T09:12:27;8.10;;;1.80;;
22967;SDS011;11650;48.106;-1.696;2022-07-06T09:14:54;5.17;;;1.80;;
22967;SDS011;11650;48.106;-1.696;2022-07-06T09:17:23;6.40;;;2.00;;
22967;SDS011;11650;48.106;-1.696;2022-07-06T09:19:51;5.43;;;1.80;;
22967;SDS011;11650;48.106;-1.696;2022-07-06T09:22:27;7.63;;;1.90;;
22967;SDS011;11650;48.106;-1.696;2022-07-06T09:25:03;3.47;;;1.70;;
22967;SDS011;11650;48.106;-1.696;2022-07-06T09:27:37;6.73;;;1.87;;
22967;SDS011;11650;48.106;-1.696;2022-07-06T09:30:10;4.23;;;1.70;;
22967;SDS011;11650;48.106;-1.696;2022-07-06T09:32:40;6.53;;;1.80;;
22967;SDS011;11650;48.106;-1.696;2022-07-06T09:35:07;6.23;;;1.53;;
22967;SDS011;11650;48.106;-1.696;2022-07-06T09:37:44;4.77;;;1.73;;
22967;SDS011;11650;48.106;-1.696;2022-07-06T09:40:18;5.33;;;1.67;;
22967;SDS011;11650;48.106;-1.696;2022-07-06T09:42:44;3.47;;;1.60;;
22967;SDS011;11650;48.106;-1.696;2022-07-06T09:45:10;7.57;;;2.00;;
22967;SDS011;11650;48.106;-1.696;2022-07-06T09:47:36;4.00;;;1.60;;
22967;SDS011;11650;48.106;-1.696;2022-07-06T09:50:04;6.43;;;1.77;;
22967;SDS011;11650;48.106;-1.696;2022-07-06T09:52:34;4.73;;;1.53;;
22967;SDS011;11650;48.106;-1.696;2022-07-06T09:55:00;3.93;;;1.60;;
22967;SDS011;11650;48.106;-1.696;2022-07-06T09:57:30;5.37;;;1.80;;
22967;SDS011;11650;48.106;-1.696;2022-07-06T09:59:56;3.47;;;1.47;;
22967;SDS011;11650;48.106;-1.696;2022-07-06T10:02:23;4.13;;;1.43;;
22967;SDS011;11650;48.106;-1.696;2022-07-06T10:04:52;4.27;;;1.20;;
22967;SDS011;11650;48.106;-1.696;2022-07-06T10:07:19;3.37;;;1.40;;
22967;SDS011;11650;48.106;-1.696;2022-07-06T10:09:48;6.43;;;1.20;;
22967;SDS011;11650;48.106;-1.696;2022-07-06T10:12:16;4.60;;;1.57;;
22967;SDS011;11650;48.106;-1.696;2022-07-06T10:14:44;2.90;;;1.30;;
22967;SDS011;11650;48.106;-1.696;2022-07-06T10:17:10;4.43;;;1.40;;
22967;SDS011;11650;48.106;-1.696;2022-07-06T10:19:38;3.57;;;1.30;;
22967;SDS011;11650;48.106;-1.696;2022-07-06T10:22:05;3.10;;;1.50;;
22967;SDS011;11650;48.106;-1.696;2022-07-06T10:24:32;4.83;;;1.40;;
22967;SDS011;11650;48.106;-1.696;2022-07-06T10:27:04;2.47;;;1.30;;
22967;SDS011;11650;48.106;-1.696;2022-07-06T10:29:31;2.57;;;1.30;;
22967;SDS011;11650;48.106;-1.696;2022-07-06T10:31:57;3.03;;;1.37;;
22967;SDS011;11650;48.106;-1.696;2022-07-06T10:34:25;5.33;;;1.73;;
22967;SDS011;11650;48.106;-1.696;2022-07-06T10:36:51;3.73;;;1.10;;
22967;SDS011;11650;48.106;-1.696;2022-07-06T10:39:32;4.90;;;1.33;;
22967;SDS011;11650;48.106;-1.696;2022-07-06T10:45:06;4.53;;;1.40;;
22967;SDS011;11650;48.106;-1.696;2022-07-06T10:47:32;3.97;;;1.30;;
22967;SDS011;11650;48.106;-1.696;2022-07-06T10:50:00;2.83;;;1.23;;
22967;SDS011;11650;48.106;-1.696;2022-07-06T10:55:37;3.73;;;1.20;;
22967;SDS011;11650;48.106;-1.696;2022-07-06T10:58:04;3.03;;;1.30;;
22967;SDS011;11650;48.106;-1.696;2022-07-06T11:06:01;2.73;;;1.20;;
22967;SDS011;11650;48.106;-1.696;2022-07-06T11:16:36;5.17;;;1.60;;
22967;SDS011;11650;48.106;-1.696;2022-07-06T11:21:44;3.23;;;1.20;;
22967;SDS011;11650;48.106;-1.696;2022-07-06T11:24:15;5.50;;;1.60;;
22967;SDS011;11650;48.106;-1.696;2022-07-06T11:26:46;2.73;;;1.10;;
22967;SDS011;11650;48.106;-1.696;2022-07-06T11:29:13;3.53;;;1.00;;
22967;SDS011;11650;48.106;-1.696;2022-07-06T11:31:42;1.57;;;0.97;;
22967;SDS011;11650;48.106;-1.696;2022-07-06T11:34:09;2.73;;;1.30;;
22967;SDS011;11650;48.106;-1.696;2022-07-06T11:36:38;4.07;;;1.30;;
22967;SDS011;11650;48.106;-1.696;2022-07-06T11:39:03;5.83;;;1.30;;
22967;SDS011;11650;48.106;-1.696;2022-07-06T11:41:33;3.33;;;1.00;;
22967;SDS011;11650;48.106;-1.696;2022-07-06T11:43:59;4.03;;;1.00;;
22967;SDS011;11650;48.106;-1.696;2022-07-06T11:46:31;2.10;;;1.03;;
22967;SDS011;11650;48.106;-1.696;2022-07-06T11:49:00;4.27;;;1.10;;
22967;SDS011;11650;48.106;-1.696;2022-07-06T11:51:30;2.70;;;1.07;;
22967;SDS011;11650;48.106;-1.696;2022-07-06T11:53:59;3.73;;;1.10;;
22967;SDS011;11650;48.106;-1.696;2022-07-06T11:56:27;1.83;;;0.93;;
22967;SDS011;11650;48.106;-1.696;2022-07-06T11:58:55;5.67;;;1.03;;
22967;SDS011;11650;48.106;-1.696;2022-07-06T12:01:22;6.13;;;1.07;;
22967;SDS011;11650;48.106;-1.696;2022-07-06T12:03:48;10.97;;;1.40;;
22967;SDS011;11650;48.106;-1.696;2022-07-06T12:11:16;2.33;;;1.00;;
22967;SDS011;11650;48.106;-1.696;2022-07-06T12:14:18;1.00;;;0.70;;
22967;SDS011;11650;48.106;-1.696;2022-07-06T12:16:46;2.07;;;1.10;;
22967;SDS011;11650;48.106;-1.696;2022-07-06T12:19:15;1.47;;;0.90;;
22967;SDS011;11650;48.106;-1.696;2022-07-06T12:21:51;1.10;;;0.83;;
22967;SDS011;11650;48.106;-1.696;2022-07-06T12:24:21;2.78;;;0.90;;
22967;SDS011;11650;48.106;-1.696;2022-07-06T12:26:49;1.63;;;0.70;;
22967;SDS011;11650;48.106;-1.696;2022-07-06T12:29:16;2.50;;;0.97;;
22967;SDS011;11650;48.106;-1.696;2022-07-06T12:31:49;2.23;;;0.90;;
22967;SDS011;11650;48.106;-1.696;2022-07-06T12:34:18;3.13;;;0.82;;
22967;SDS011;11650;48.106;-1.696;2022-07-06T12:37:27;1.98;;;1.00;;
22967;SDS011;11650;48.106;-1.696;2022-07-06T12:39:44;5.22;;;1.13;;
22967;SDS011;11650;48.106;-1.696;2022-07-06T12:42:10;3.50;;;0.87;;
22967;SDS011;11650;48.106;-1.696;2022-07-06T12:44:57;1.57;;;0.80;;
22967;SDS011;11650;48.106;-1.696;2022-07-06T12:47:23;3.08;;;1.00;;
22967;SDS011;11650;48.106;-1.696;2022-07-06T12:52:31;2.45;;;0.90;;
22967;SDS011;11650;48.106;-1.696;2022-07-06T12:54:59;3.67;;;0.80;;
22967;SDS011;11650;48.106;-1.696;2022-07-06T12:57:26;2.38;;;0.98;;
22967;SDS011;11650;48.106;-1.696;2022-07-06T13:02:19;2.47;;;1.00;;
22967;SDS011;11650;48.106;-1.696;2022-07-06T13:05:07;2.75;;;0.93;;
22967;SDS011;11650;48.106;-1.696;2022-07-06T13:07:35;2.85;;;0.82;;
22967;SDS011;11650;48.106;-1.696;2022-07-06T13:10:06;2.28;;;0.80;;
22967;SDS011;11650;48.106;-1.696;2022-07-06T13:12:33;3.88;;;1.05;;
22967;SDS011;11650;48.106;-1.696;2022-07-06T13:15:00;1.85;;;0.80;;
22967;SDS011;11650;48.106;-1.696;2022-07-06T13:17:25;2.47;;;1.00;;
22967;SDS011;11650;48.106;-1.696;2022-07-06T13:19:51;2.58;;;0.90;;
22967;SDS011;11650;48.106;-1.696;2022-07-06T13:22:16;2.05;;;0.93;;
22967;SDS011;11650;48.106;-1.696;2022-07-06T13:24:42;3.13;;;1.05;;
22967;SDS011;11650;48.106;-1.696;2022-07-06T13:27:08;1.85;;;0.90;;
22967;SDS011;11650;48.106;-1.696;2022-07-06T13:29:35;2.00;;;1.00;;
22967;SDS011;11650;48.106;-1.696;2022-07-06T13:32:01;2.42;;;0.90;;
22967;SDS011;11650;48.106;-1.696;2022-07-06T13:34:27;3.30;;;0.93;;
22967;SDS011;11650;48.106;-1.696;2022-07-06T13:36:53;2.10;;;1.00;;
22967;SDS011;11650;48.106;-1.696;2022-07-06T13:39:18;1.33;;;0.82;;
22967;SDS011;11650;48.106;-1.696;2022-07-06T13:41:44;5.40;;;0.98;;
22967;SDS011;11650;48.106;-1.696;2022-07-06T13:44:10;2.17;;;1.13;;
22967;SDS011;11650;48.106;-1.696;2022-07-06T13:46:37;2.75;;;0.90;;
22967;SDS011;11650;48.106;-1.696;2022-07-06T13:49:04;3.50;;;1.00;;
22967;SDS011;11650;48.106;-1.696;2022-07-06T13:51:30;2.28;;;0.90;;
22967;SDS011;11650;48.106;-1.696;2022-07-06T13:53:57;3.03;;;1.00;;
22967;SDS011;11650;48.106;-1.696;2022-07-06T13:56:24;1.40;;;0.80;;
22967;SDS011;11650;48.106;-1.696;2022-07-06T13:58:50;2.67;;;0.80;;
22967;SDS011;11650;48.106;-1.696;2022-07-06T14:01:16;2.45;;;1.00;;
22967;SDS011;11650;48.106;-1.696;2022-07-06T14:03:42;3.72;;;1.00;;
22967;SDS011;11650;48.106;-1.696;2022-07-06T14:06:08;3.72;;;1.00;;
22967;SDS011;11650;48.106;-1.696;2022-07-06T14:08:34;1.75;;;0.93;;
22967;SDS011;11650;48.106;-1.696;2022-07-06T14:11:01;3.55;;;0.90;;
22967;SDS011;11650;48.106;-1.696;2022-07-06T14:13:28;2.40;;;0.98;;
22967;SDS011;11650;48.106;-1.696;2022-07-06T14:15:53;3.10;;;1.00;;
22967;SDS011;11650;48.106;-1.696;2022-07-06T14:18:19;4.18;;;1.08;;
22967;SDS011;11650;48.106;-1.696;2022-07-06T14:20:45;2.03;;;0.77;;
22967;SDS011;11650;48.106;-1.696;2022-07-06T14:23:12;4.22;;;1.30;;
22967;SDS011;11650;48.106;-1.696;2022-07-06T14:25:39;4.35;;;0.93;;
22967;SDS011;11650;48.106;-1.696;2022-07-06T14:28:05;2.03;;;1.23;;
22967;SDS011;11650;48.106;-1.696;2022-07-06T14:30:31;1.33;;;0.80;;
22967;SDS011;11650;48.106;-1.696;2022-07-06T14:32:58;3.25;;;1.10;;
22967;SDS011;11650;48.106;-1.696;2022-07-06T14:35:24;2.03;;;1.30;;
22967;SDS011;11650;48.106;-1.696;2022-07-06T14:37:50;3.05;;;0.75;;
22967;SDS011;11650;48.106;-1.696;2022-07-06T14:40:16;2.28;;;0.85;;
22967;SDS011;11650;48.106;-1.696;2022-07-06T14:42:42;4.40;;;0.93;;
22967;SDS011;11650;48.106;-1.696;2022-07-06T14:45:07;3.05;;;1.00;;
22967;SDS011;11650;48.106;-1.696;2022-07-06T14:47:33;4.07;;;0.90;;
22967;SDS011;11650;48.106;-1.696;2022-07-06T14:50:01;4.90;;;1.00;;
22967;SDS011;11650;48.106;-1.696;2022-07-06T14:52:27;1.40;;;0.90;;
22967;SDS011;11650;48.106;-1.696;2022-07-06T14:54:53;1.25;;;0.80;;
22967;SDS011;11650;48.106;-1.696;2022-07-06T14:57:19;2.45;;;0.80;;
22967;SDS011;11650;48.106;-1.696;2022-07-06T14:59:45;2.88;;;0.90;;